Time;durP1;ratioP1;P1;durP2;ratioP2;P2;SDS_P1;SDS_P2;PMS_P1;PMS_P2;Temp;Humidity;BMP_temperature;BMP_pressure;BME280_temperature;BME280_humidity;BME280_pressure;Samples;Min_cycle;Max_cycle;Signal;HPM_P1;HPM_P2
2021/03/06 00:00:13;;;;;;;35.93;18.10;;;;;;;;;;5033905;28;20243;-90
2021/03/06 00:02:39;;;;;;;41.23;20.00;;;;;;;;;;5033751;28;20192;-90
2021/03/06 00:05:06;;;;;;;35.73;19.63;;;;;;;;;;5034346;28;20228;-90
2021/03/06 00:07:31;;;;;;;31.97;18.10;;;;;;;;;;5033849;28;20234;-90
2021/03/06 00:09:56;;;;;;;41.63;22.27;;;;;;;;;;5034775;28;20180;-92
2021/03/06 00:12:22;;;;;;;44.00;21.47;;;;;;;;;;5034096;28;20179;-91
2021/03/06 00:14:47;;;;;;;38.60;20.67;;;;;;;;;;5034296;28;20539;-91
2021/03/06 00:17:12;;;;;;;36.47;21.50;;;;;;;;;;5034081;28;20628;-91
2021/03/06 00:19:38;;;;;;;42.73;20.10;;;;;;;;;;5035807;28;20659;-91
2021/03/06 00:22:04;;;;;;;33.70;19.37;;;;;;;;;;5033724;28;20180;-91
2021/03/06 00:24:30;;;;;;;35.17;19.73;;;;;;;;;;5033920;28;20173;-91
2021/03/06 00:26:57;;;;;;;31.87;18.23;;;;;;;;;;5035811;28;20169;-91
2021/03/06 00:29:22;;;;;;;27.77;16.13;;;;;;;;;;5034495;28;20177;-91
2021/03/06 00:31:49;;;;;;;24.90;14.83;;;;;;;;;;5033881;28;20176;-91
2021/03/06 00:34:14;;;;;;;22.73;13.53;;;;;;;;;;5034180;28;20579;-91
2021/03/06 00:36:39;;;;;;;22.17;12.57;;;;;;;;;;5033532;28;20177;-91
2021/03/06 00:39:05;;;;;;;22.83;13.07;;;;;;;;;;5033724;28;20216;-92
2021/03/06 00:41:31;;;;;;;25.17;13.10;;;;;;;;;;5034054;28;20609;-92
2021/03/06 00:43:56;;;;;;;20.03;12.20;;;;;;;;;;5033074;28;20235;-91
2021/03/06 00:46:21;;;;;;;20.13;11.70;;;;;;;;;;5033384;28;20258;-91
2021/03/06 00:48:46;;;;;;;20.33;10.80;;;;;;;;;;5033705;28;20184;-91
2021/03/06 00:51:12;;;;;;;18.40;10.77;;;;;;;;;;5035171;28;20183;-91
2021/03/06 00:53:37;;;;;;;19.80;10.33;;;;;;;;;;5034786;28;20512;-91
2021/03/06 00:56:03;;;;;;;16.40;10.03;;;;;;;;;;5034707;28;20172;-91
2021/03/06 00:58:28;;;;;;;17.73;9.50;;;;;;;;;;5033614;28;20238;-91
2021/03/06 01:00:54;;;;;;;14.20;8.67;;;;;;;;;;5033471;28;20374;-91
2021/03/06 01:03:20;;;;;;;16.20;9.20;;;;;;;;;;5033523;28;20215;-91
2021/03/06 01:05:45;;;;;;;13.13;8.90;;;;;;;;;;5033781;28;20173;-91
2021/03/06 01:08:10;;;;;;;14.90;8.93;;;;;;;;;;5034776;28;20164;-91
2021/03/06 01:10:37;;;;;;;17.23;9.43;;;;;;;;;;5033486;28;20188;-91
2021/03/06 01:13:04;;;;;;;14.17;8.70;;;;;;;;;;5035455;28;20172;-91
2021/03/06 01:15:29;;;;;;;17.33;10.07;;;;;;;;;;5033420;28;20168;-91
2021/03/06 01:17:54;;;;;;;17.90;9.83;;;;;;;;;;5033322;28;20173;-92
2021/03/06 01:20:20;;;;;;;15.80;10.03;;;;;;;;;;5033271;28;20265;-92
2021/03/06 01:22:45;;;;;;;18.60;10.90;;;;;;;;;;5034837;28;20180;-92
2021/03/06 01:25:10;;;;;;;20.10;11.13;;;;;;;;;;5033547;28;20203;-91
2021/03/06 01:27:36;;;;;;;18.73;11.50;;;;;;;;;;5032456;28;20690;-93
2021/03/06 01:30:02;;;;;;;22.73;12.60;;;;;;;;;;5033560;28;20194;-93
2021/03/06 01:32:27;;;;;;;20.40;12.63;;;;;;;;;;5033520;28;20173;-94
2021/03/06 01:34:53;;;;;;;19.63;12.43;;;;;;;;;;5033679;28;20177;-94
2021/03/06 01:37:18;;;;;;;20.00;12.63;;;;;;;;;;5033431;28;20288;-93
2021/03/06 01:39:43;;;;;;;21.50;13.27;;;;;;;;;;5033407;28;20188;-94
2021/03/06 01:42:09;;;;;;;24.83;13.53;;;;;;;;;;5033322;28;20176;-93
2021/03/06 01:44:35;;;;;;;25.90;15.90;;;;;;;;;;5033552;28;20175;-94
2021/03/06 01:47:00;;;;;;;24.87;14.27;;;;;;;;;;5033314;28;20175;-94
2021/03/06 01:49:26;;;;;;;22.77;14.10;;;;;;;;;;5033492;28;20627;-93
2021/03/06 01:51:52;;;;;;;23.73;14.27;;;;;;;;;;5033406;28;20241;-93
2021/03/06 01:54:22;;;;;;;24.53;14.50;;;;;;;;;;5033519;28;20172;-93
2021/03/06 01:56:47;;;;;;;23.67;13.30;;;;;;;;;;5033772;28;20176;-94
2021/03/06 01:59:12;;;;;;;22.07;13.83;;;;;;;;;;5033026;28;20687;-94
2021/03/06 02:01:38;;;;;;;24.03;13.63;;;;;;;;;;5033130;28;20228;-95
2021/03/06 02:04:03;;;;;;;23.60;13.67;;;;;;;;;;5049815;28;20185;-94
2021/03/06 02:06:29;;;;;;;24.90;14.50;;;;;;;;;;5033251;28;20629;-94
2021/03/06 02:08:54;;;;;;;23.40;13.63;;;;;;;;;;5033198;28;20176;-94
2021/03/06 02:11:37;;;;;;;21.23;12.40;;;;;;;;;;5033192;28;20180;-94
2021/03/06 02:14:08;;;;;;;23.47;13.53;;;;;;;;;;5033567;28;20562;-95
2021/03/06 02:16:44;;;;;;;23.77;13.17;;;;;;;;;;5033432;28;20187;-94
2021/03/06 02:19:28;;;;;;;26.33;15.57;;;;;;;;;;5032876;28;20176;-94
2021/03/06 02:21:56;;;;;;;23.20;13.37;;;;;;;;;;5033342;28;20176;-92
2021/03/06 02:24:31;;;;;;;23.83;14.67;;;;;;;;;;5033290;28;20321;-93
2021/03/06 02:27:28;;;;;;;24.67;13.67;;;;;;;;;;5032658;28;20194;-93
2021/03/06 02:29:56;;;;;;;25.23;14.13;;;;;;;;;;4999720;28;20184;-93
2021/03/06 02:32:23;;;;;;;22.83;14.67;;;;;;;;;;5032296;28;20234;-93
2021/03/06 02:34:55;;;;;;;27.60;15.50;;;;;;;;;;5033882;28;20230;-93
2021/03/06 02:37:21;;;;;;;25.63;15.20;;;;;;;;;;5033073;28;20197;-93
2021/03/06 02:39:48;;;;;;;26.37;15.90;;;;;;;;;;5034522;28;20212;-93
2021/03/06 02:42:16;;;;;;;26.97;15.90;;;;;;;;;;5036787;28;20255;-92
2021/03/06 02:44:42;;;;;;;27.13;15.37;;;;;;;;;;5037374;28;20169;-91
2021/03/06 02:47:07;;;;;;;27.30;14.57;;;;;;;;;;5037432;28;20175;-91
2021/03/06 02:49:33;;;;;;;24.20;14.23;;;;;;;;;;5037439;28;20176;-92
2021/03/06 02:51:58;;;;;;;26.63;14.63;;;;;;;;;;5037397;28;20523;-92
2021/03/06 02:54:24;;;;;;;23.63;15.03;;;;;;;;;;5037326;28;20169;-92
2021/03/06 02:56:50;;;;;;;24.47;14.00;;;;;;;;;;5036088;28;20185;-92
2021/03/06 02:59:27;;;;;;;23.97;14.63;;;;;;;;;;5035617;28;20187;-92
2021/03/06 03:02:15;;;;;;;25.20;14.00;;;;;;;;;;5035567;28;20227;-92
2021/03/06 03:04:59;;;;;;;27.37;15.00;;;;;;;;;;5035986;28;20177;-93
2021/03/06 03:07:35;;;;;;;23.17;14.03;;;;;;;;;;5036119;28;20187;-93
2021/03/06 03:10:03;;;;;;;22.80;13.33;;;;;;;;;;5036576;28;20262;-93
2021/03/06 03:12:32;;;;;;;23.53;13.33;;;;;;;;;;5035839;28;20200;-92
2021/03/06 03:15:02;;;;;;;26.07;14.20;;;;;;;;;;5037011;28;20181;-92
2021/03/06 03:17:32;;;;;;;22.70;13.73;;;;;;;;;;5037159;28;20573;-93
2021/03/06 03:20:00;;;;;;;22.17;13.47;;;;;;;;;;5036955;28;20212;-93
2021/03/06 03:22:27;;;;;;;20.87;13.90;;;;;;;;;;5036992;28;20290;-93
2021/03/06 03:24:54;;;;;;;24.33;14.87;;;;;;;;;;5035688;28;20185;-92
2021/03/06 03:27:19;;;;;;;23.40;14.53;;;;;;;;;;5035814;28;20271;-92
2021/03/06 03:29:45;;;;;;;28.40;15.37;;;;;;;;;;5035312;28;20645;-92
2021/03/06 03:32:11;;;;;;;24.77;13.87;;;;;;;;;;5035436;28;20173;-92
2021/03/06 03:34:37;;;;;;;24.87;15.47;;;;;;;;;;5036650;28;20263;-92
2021/03/06 03:37:03;;;;;;;25.57;14.13;;;;;;;;;;5036985;28;20659;-92
2021/03/06 03:39:29;;;;;;;23.90;15.00;;;;;;;;;;5035281;28;20200;-92
2021/03/06 03:41:54;;;;;;;24.77;14.83;;;;;;;;;;5036268;28;20638;-92
2021/03/06 03:44:20;;;;;;;24.40;14.67;;;;;;;;;;5035291;28;20183;-93
2021/03/06 03:46:45;;;;;;;27.77;16.33;;;;;;;;;;5036498;28;20176;-92
2021/03/06 03:49:15;;;;;;;31.07;18.43;;;;;;;;;;5036437;28;20272;-92
2021/03/06 03:51:41;;;;;;;32.97;17.33;;;;;;;;;;5035102;28;20225;-92
2021/03/06 03:54:06;;;;;;;28.60;16.27;;;;;;;;;;5035529;28;20180;-92
2021/03/06 03:56:32;;;;;;;29.23;16.00;;;;;;;;;;5036569;28;20169;-92
2021/03/06 03:58:57;;;;;;;31.83;17.10;;;;;;;;;;5035370;28;20290;-92
2021/03/06 04:01:22;;;;;;;26.50;16.67;;;;;;;;;;5036334;28;20666;-92
2021/03/06 04:03:48;;;;;;;27.63;16.73;;;;;;;;;;5034750;28;20226;-91
2021/03/06 04:06:13;;;;;;;32.07;17.77;;;;;;;;;;5036655;28;20179;-92
2021/03/06 04:08:38;;;;;;;35.67;17.47;;;;;;;;;;5035007;28;20180;-92
2021/03/06 04:11:04;;;;;;;32.43;18.13;;;;;;;;;;5035658;28;20278;-92
2021/03/06 04:13:29;;;;;;;32.93;18.10;;;;;;;;;;5034370;28;20173;-92
2021/03/06 04:15:54;;;;;;;30.90;17.80;;;;;;;;;;5035125;28;20180;-92
2021/03/06 04:18:20;;;;;;;32.90;18.57;;;;;;;;;;5035212;28;20197;-92
2021/03/06 04:20:45;;;;;;;30.33;18.13;;;;;;;;;;5034532;28;20566;-92
2021/03/06 04:23:11;;;;;;;32.57;18.67;;;;;;;;;;5034734;28;20200;-92
2021/03/06 04:25:36;;;;;;;32.63;18.33;;;;;;;;;;5034688;28;20180;-92
2021/03/06 04:28:02;;;;;;;32.03;18.00;;;;;;;;;;5035605;28;20200;-91
2021/03/06 04:30:27;;;;;;;31.87;18.70;;;;;;;;;;5035581;28;20175;-92
2021/03/06 04:32:53;;;;;;;33.77;18.87;;;;;;;;;;5034369;28;20180;-93
2021/03/06 04:35:18;;;;;;;32.33;18.37;;;;;;;;;;5034479;28;20181;-93
2021/03/06 04:37:43;;;;;;;37.90;20.00;;;;;;;;;;5034330;28;20712;-93
2021/03/06 04:40:10;;;;;;;29.43;17.00;;;;;;;;;;5034741;28;20227;-91
2021/03/06 04:42:36;;;;;;;31.47;18.27;;;;;;;;;;5034545;28;20518;-91
2021/03/06 04:45:02;;;;;;;32.80;18.13;;;;;;;;;;5033951;28;20176;-93
2021/03/06 04:47:28;;;;;;;31.93;18.67;;;;;;;;;;5035123;28;20172;-92
2021/03/06 04:49:53;;;;;;;34.33;18.63;;;;;;;;;;5034509;28;20523;-90
2021/03/06 04:52:18;;;;;;;32.07;18.53;;;;;;;;;;5033763;28;20562;-90
2021/03/06 04:54:44;;;;;;;32.10;19.43;;;;;;;;;;5035020;28;20171;-91
2021/03/06 04:57:09;;;;;;;36.43;21.00;;;;;;;;;;5034294;28;20172;-93
2021/03/06 04:59:35;;;;;;;40.57;23.70;;;;;;;;;;5033889;28;20210;-93
2021/03/06 05:02:00;;;;;;;34.13;18.97;;;;;;;;;;5033507;28;20224;-93
2021/03/06 05:04:25;;;;;;;32.83;19.77;;;;;;;;;;5033294;28;20179;-92
2021/03/06 05:06:50;;;;;;;31.40;20.03;;;;;;;;;;5033839;28;20203;-93
2021/03/06 05:09:16;;;;;;;31.00;19.67;;;;;;;;;;5033839;28;20183;-93
2021/03/06 05:11:41;;;;;;;34.20;20.43;;;;;;;;;;5033661;28;20244;-92
2021/03/06 05:14:07;;;;;;;32.17;18.50;;;;;;;;;;5033997;28;20627;-93
2021/03/06 05:16:32;;;;;;;31.90;18.67;;;;;;;;;;5033467;28;20183;-91
2021/03/06 05:18:57;;;;;;;36.87;21.13;;;;;;;;;;5033286;28;20180;-91
2021/03/06 05:21:23;;;;;;;42.50;24.20;;;;;;;;;;5033240;28;20212;-91
2021/03/06 05:23:48;;;;;;;36.57;21.60;;;;;;;;;;5033246;28;20263;-91
2021/03/06 05:26:13;;;;;;;39.80;20.63;;;;;;;;;;5034499;28;20164;-92
2021/03/06 05:28:38;;;;;;;37.30;21.20;;;;;;;;;;5034374;28;20176;-91
2021/03/06 05:31:04;;;;;;;36.73;20.10;;;;;;;;;;5033073;28;20604;-93
2021/03/06 05:33:29;;;;;;;34.10;20.13;;;;;;;;;;5033907;28;20242;-93
2021/03/06 05:35:54;;;;;;;35.60;20.47;;;;;;;;;;5033968;28;20254;-93
2021/03/06 05:38:20;;;;;;;39.13;19.10;;;;;;;;;;5032941;28;20211;-92
2021/03/06 05:40:47;;;;;;;34.17;20.23;;;;;;;;;;5033049;28;20212;-92
2021/03/06 05:43:13;;;;;;;33.93;20.13;;;;;;;;;;5033350;28;20325;-92
2021/03/06 05:45:38;;;;;;;37.07;19.97;;;;;;;;;;5033256;28;20259;-91
2021/03/06 05:48:04;;;;;;;60.70;29.93;;;;;;;;;;5034695;28;20172;-92
2021/03/06 05:50:30;;;;;;;43.40;24.53;;;;;;;;;;5034039;28;20176;-92
2021/03/06 05:52:56;;;;;;;54.33;28.73;;;;;;;;;;5032492;28;20173;-92
2021/03/06 05:55:23;;;;;;;58.87;31.10;;;;;;;;;;5033979;28;20191;-91
2021/03/06 05:57:49;;;;;;;46.50;25.63;;;;;;;;;;5034034;28;20259;-91
2021/03/06 06:00:14;;;;;;;67.90;33.87;;;;;;;;;;5032408;28;20303;-92
2021/03/06 06:02:40;;;;;;;44.83;23.40;;;;;;;;;;5032648;28;20238;-91
2021/03/06 06:05:06;;;;;;;46.87;22.20;;;;;;;;;;5033992;28;20168;-91
2021/03/06 06:07:34;;;;;;;38.60;20.70;;;;;;;;;;5033915;28;20168;-90
2021/03/06 06:09:59;;;;;;;28.57;16.80;;;;;;;;;;5033826;28;20240;-90
2021/03/06 06:12:24;;;;;;;28.33;17.33;;;;;;;;;;5034110;28;20255;-91
2021/03/06 06:14:50;;;;;;;26.60;14.43;;;;;;;;;;5037678;28;20172;-91
2021/03/06 06:17:15;;;;;;;29.80;15.13;;;;;;;;;;5041007;28;20267;-91
2021/03/06 06:19:40;;;;;;;25.30;15.00;;;;;;;;;;5040287;28;20202;-91
2021/03/06 06:22:16;;;;;;;24.93;13.83;;;;;;;;;;5040443;28;20180;-91
2021/03/06 06:24:43;;;;;;;25.77;14.43;;;;;;;;;;5039077;28;20511;-91
2021/03/06 06:27:08;;;;;;;21.50;13.77;;;;;;;;;;5040600;28;20206;-92
2021/03/06 06:29:40;;;;;;;26.30;15.10;;;;;;;;;;5040335;28;20570;-91
2021/03/06 06:32:07;;;;;;;21.67;15.47;;;;;;;;;;5040523;28;20677;-91
2021/03/06 06:34:32;;;;;;;25.57;16.33;;;;;;;;;;5040249;28;20173;-91
2021/03/06 06:36:58;;;;;;;27.73;16.93;;;;;;;;;;5040123;28;20587;-91
2021/03/06 06:39:27;;;;;;;19.27;13.83;;;;;;;;;;5038767;28;20183;-92
2021/03/06 06:41:54;;;;;;;19.37;14.20;;;;;;;;;;5039912;28;20177;-91
2021/03/06 06:44:20;;;;;;;18.07;13.60;;;;;;;;;;5038869;28;20204;-91
2021/03/06 06:46:45;;;;;;;18.77;14.23;;;;;;;;;;5040568;28;20223;-92
2021/03/06 06:49:11;;;;;;;30.47;19.50;;;;;;;;;;5038753;28;20195;-92
2021/03/06 06:51:36;;;;;;;24.47;17.57;;;;;;;;;;5039835;28;20199;-93
2021/03/06 06:54:15;;;;;;;21.87;16.47;;;;;;;;;;5039079;28;20615;-92
2021/03/06 06:56:40;;;;;;;31.20;21.60;;;;;;;;;;5038956;28;20176;-92
2021/03/06 06:59:08;;;;;;;20.90;15.13;;;;;;;;;;5039682;28;20615;-92
2021/03/06 07:01:34;;;;;;;23.43;17.73;;;;;;;;;;5039885;28;20228;-92
2021/03/06 07:04:02;;;;;;;18.40;13.27;;;;;;;;;;5039017;28;20187;-92
2021/03/06 07:06:27;;;;;;;29.30;21.03;;;;;;;;;;5038555;28;20180;-92
2021/03/06 07:09:03;;;;;;;28.13;19.67;;;;;;;;;;5037980;28;20540;-90
2021/03/06 07:11:29;;;;;;;19.13;14.50;;;;;;;;;;5039808;28;20556;-90
2021/03/06 07:13:59;;;;;;;19.20;13.37;;;;;;;;;;5039826;28;20196;-89
2021/03/06 07:16:24;;;;;;;16.60;12.60;;;;;;;;;;5039246;28;20230;-89
2021/03/06 07:19:00;;;;;;;16.07;13.30;;;;;;;;;;5039183;28;20271;-88
2021/03/06 07:21:26;;;;;;;16.73;12.93;;;;;;;;;;5039900;28;20218;-91
2021/03/06 07:23:52;;;;;;;15.60;13.07;;;;;;;;;;5039753;28;20183;-92
2021/03/06 07:26:19;;;;;;;14.70;12.10;;;;;;;;;;5036435;28;20271;-91
2021/03/06 07:28:44;;;;;;;16.27;12.90;;;;;;;;;;5036714;28;20524;-91
2021/03/06 07:31:10;;;;;;;16.03;12.77;;;;;;;;;;5036331;28;20176;-91
2021/03/06 07:33:36;;;;;;;18.57;14.23;;;;;;;;;;5036527;28;20172;-91
2021/03/06 07:36:02;;;;;;;16.47;13.20;;;;;;;;;;5036762;28;20638;-90
2021/03/06 07:38:27;;;;;;;18.73;13.40;;;;;;;;;;5036119;28;20200;-91
2021/03/06 07:40:55;;;;;;;19.00;13.10;;;;;;;;;;5036569;28;20204;-90
2021/03/06 07:43:21;;;;;;;17.73;13.73;;;;;;;;;;5036611;28;20177;-90
2021/03/06 07:45:48;;;;;;;20.70;13.53;;;;;;;;;;5036544;28;20168;-90
2021/03/06 07:48:15;;;;;;;45.87;28.80;;;;;;;;;;5036234;28;20213;-90
2021/03/06 07:50:42;;;;;;;21.23;15.17;;;;;;;;;;5046472;28;20187;-90
2021/03/06 07:53:07;;;;;;;17.43;14.13;;;;;;;;;;5044439;28;20263;-89
2021/03/06 07:55:34;;;;;;;26.87;18.97;;;;;;;;;;5056565;28;20698;-89
2021/03/06 07:58:01;;;;;;;17.00;12.73;;;;;;;;;;5054444;28;20182;-89
2021/03/06 08:00:41;;;;;;;24.10;17.23;;;;;;;;;;5056021;28;20260;-90
2021/03/06 08:03:22;;;;;;;16.87;12.30;;;;;;;;;;5054933;28;20418;-90
2021/03/06 08:05:47;;;;;;;18.30;12.93;;;;;;;;;;5054419;28;20267;-89
2021/03/06 08:08:45;;;;;;;26.97;17.97;;;;;;;;;;5054536;28;20199;-89
2021/03/06 08:11:15;;;;;;;14.63;10.13;;;;;;;;;;5043456;28;20199;-89
2021/03/06 08:13:47;;;;;;;14.40;11.57;;;;;;;;;;5055441;28;20600;-89
2021/03/06 08:16:24;;;;;;;18.53;12.50;;;;;;;;;;5056200;28;20168;-89
2021/03/06 08:18:59;;;;;;;23.80;15.40;;;;;;;;;;5056224;28;20621;-89
2021/03/06 08:21:26;;;;;;;14.53;9.97;;;;;;;;;;5048072;28;20298;-89
2021/03/06 08:24:11;;;;;;;22.60;13.20;;;;;;;;;;5035574;28;20179;-89
2021/03/06 08:26:36;;;;;;;17.50;12.23;;;;;;;;;;5034405;28;20184;-89
2021/03/06 08:29:23;;;;;;;15.93;10.30;;;;;;;;;;5035074;28;20188;-89
2021/03/06 08:31:55;;;;;;;18.53;12.10;;;;;;;;;;5035608;28;20177;-89
2021/03/06 08:34:29;;;;;;;18.53;12.53;;;;;;;;;;5034324;28;20643;-89
2021/03/06 08:37:16;;;;;;;19.67;12.13;;;;;;;;;;5037548;28;20238;-90
2021/03/06 08:39:49;;;;;;;24.60;15.67;;;;;;;;;;5051953;28;20240;-90
2021/03/06 08:42:15;;;;;;;19.03;11.63;;;;;;;;;;5050986;28;20168;-90
2021/03/06 08:44:41;;;;;;;22.47;15.63;;;;;;;;;;5054392;28;20172;-89
2021/03/06 08:47:07;;;;;;;29.57;23.03;;;;;;;;;;5055084;28;20172;-89
2021/03/06 08:49:33;;;;;;;19.40;11.63;;;;;;;;;;5054882;28;20200;-89
2021/03/06 08:51:58;;;;;;;12.53;9.17;;;;;;;;;;5054550;28;20664;-88
2021/03/06 08:54:24;;;;;;;13.77;9.13;;;;;;;;;;5035957;28;20527;-88
2021/03/06 08:56:50;;;;;;;13.40;9.70;;;;;;;;;;5035274;28;20172;-88
2021/03/06 08:59:15;;;;;;;26.40;15.93;;;;;;;;;;5035005;28;20236;-88
2021/03/06 09:01:41;;;;;;;21.83;12.00;;;;;;;;;;5034401;28;20315;-88
2021/03/06 09:04:06;;;;;;;18.57;9.80;;;;;;;;;;5034560;28;20172;-88
2021/03/06 09:06:34;;;;;;;15.47;10.03;;;;;;;;;;5034576;28;20505;-88
2021/03/06 09:09:00;;;;;;;14.80;10.37;;;;;;;;;;5047125;28;20172;-88
2021/03/06 09:11:25;;;;;;;13.40;9.83;;;;;;;;;;5054300;28;20168;-87
2021/03/06 09:13:52;;;;;;;14.47;8.37;;;;;;;;;;5054562;28;20210;-87
2021/03/06 09:16:18;;;;;;;16.80;11.90;;;;;;;;;;5054211;28;20642;-88
2021/03/06 09:18:43;;;;;;;18.20;13.57;;;;;;;;;;5054241;28;20167;-86
2021/03/06 09:21:15;;;;;;;13.83;9.50;;;;;;;;;;5054069;28;20229;-87
2021/03/06 09:23:41;;;;;;;14.47;10.57;;;;;;;;;;5048141;28;20657;-88
2021/03/06 09:26:08;;;;;;;11.97;8.07;;;;;;;;;;5036308;28;20184;-87
2021/03/06 09:28:34;;;;;;;10.57;7.70;;;;;;;;;;5034522;28;20199;-86
2021/03/06 09:31:01;;;;;;;9.67;6.97;;;;;;;;;;5034041;28;20173;-87
2021/03/06 09:33:27;;;;;;;11.63;7.03;;;;;;;;;;5034735;28;20635;-86
2021/03/06 09:36:00;;;;;;;11.63;6.87;;;;;;;;;;5035988;28;20566;-87
2021/03/06 09:38:26;;;;;;;9.10;6.67;;;;;;;;;;5046196;28;20270;-87
2021/03/06 09:40:52;;;;;;;9.50;6.90;;;;;;;;;;5046745;28;20294;-85
2021/03/06 09:43:23;;;;;;;13.43;8.90;;;;;;;;;;5042820;28;20262;-87
2021/03/06 09:45:48;;;;;;;11.27;7.50;;;;;;;;;;5044263;28;20172;-87
2021/03/06 09:48:17;;;;;;;6.53;4.10;;;;;;;;;;5045353;28;20263;-87
2021/03/06 09:50:43;;;;;;;3.77;3.40;;;;;;;;;;5054284;28;20614;-86
2021/03/06 09:53:19;;;;;;;4.77;4.13;;;;;;;;;;5053949;28;20179;-87
2021/03/06 09:55:44;;;;;;;7.47;4.60;;;;;;;;;;5054240;28;20206;-86
2021/03/06 09:58:17;;;;;;;8.67;6.07;;;;;;;;;;5054072;28;20562;-85
2021/03/06 10:00:42;;;;;;;9.00;5.10;;;;;;;;;;5053549;28;20755;-85
2021/03/06 10:03:07;;;;;;;8.47;5.60;;;;;;;;;;5054150;28;20247;-86
2021/03/06 10:05:33;;;;;;;8.33;5.33;;;;;;;;;;5053875;28;20645;-85
2021/03/06 10:07:58;;;;;;;8.93;5.30;;;;;;;;;;5054153;28;20176;-86
2021/03/06 10:10:25;;;;;;;9.13;5.33;;;;;;;;;;5053733;28;20265;-86
2021/03/06 10:12:51;;;;;;;12.30;7.03;;;;;;;;;;5053696;28;20176;-85
2021/03/06 10:15:17;;;;;;;12.63;7.90;;;;;;;;;;5053734;28;20195;-86
2021/03/06 10:17:42;;;;;;;16.97;13.53;;;;;;;;;;5053305;28;20172;-85
2021/03/06 10:20:08;;;;;;;12.70;7.93;;;;;;;;;;5053398;28;20203;-86
2021/03/06 10:22:43;;;;;;;9.40;6.47;;;;;;;;;;5044676;28;20611;-87
2021/03/06 10:25:09;;;;;;;11.17;5.83;;;;;;;;;;5039767;28;20172;-87
2021/03/06 10:27:37;;;;;;;6.17;5.23;;;;;;;;;;5053869;28;20250;-86
2021/03/06 10:30:13;;;;;;;7.30;5.00;;;;;;;;;;5049947;28;20580;-85
2021/03/06 10:32:40;;;;;;;8.27;4.97;;;;;;;;;;5051728;28;20191;-85
2021/03/06 10:35:06;;;;;;;7.97;5.70;;;;;;;;;;5052330;28;20259;-86
2021/03/06 10:37:31;;;;;;;6.53;5.03;;;;;;;;;;5052250;28;20274;-86
2021/03/06 10:39:56;;;;;;;6.10;4.30;;;;;;;;;;5052900;28;20191;-86
2021/03/06 10:42:40;;;;;;;5.47;4.73;;;;;;;;;;5053098;28;20259;-86
2021/03/06 10:45:06;;;;;;;8.77;6.40;;;;;;;;;;5053511;28;20170;-86
2021/03/06 10:47:52;;;;;;;11.57;6.50;;;;;;;;;;5053654;28;20184;-86
2021/03/06 10:50:30;;;;;;;8.63;5.47;;;;;;;;;;5054021;28;20172;-87
2021/03/06 10:53:14;;;;;;;4.33;3.93;;;;;;;;;;5053025;28;20183;-85
2021/03/06 10:55:39;;;;;;;7.00;4.00;;;;;;;;;;5053105;28;20622;-85
2021/03/06 10:58:05;;;;;;;5.17;4.10;;;;;;;;;;5053239;28;20164;-85
2021/03/06 11:00:31;;;;;;;5.57;3.90;;;;;;;;;;5052853;28;20196;-85
2021/03/06 11:03:00;;;;;;;10.67;5.10;;;;;;;;;;5056980;28;20273;-85
2021/03/06 11:05:26;;;;;;;6.90;4.10;;;;;;;;;;5056590;28;20222;-85
2021/03/06 11:07:52;;;;;;;9.20;6.40;;;;;;;;;;5056778;28;20179;-85
2021/03/06 11:10:19;;;;;;;8.27;5.17;;;;;;;;;;5056946;28;20561;-86
2021/03/06 11:12:56;;;;;;;10.03;6.37;;;;;;;;;;5056515;28;20199;-86
2021/03/06 11:15:25;;;;;;;8.70;5.67;;;;;;;;;;5056349;28;20171;-86
2021/03/06 11:17:53;;;;;;;6.00;4.30;;;;;;;;;;5056731;28;20179;-87
2021/03/06 11:20:19;;;;;;;6.00;4.07;;;;;;;;;;5056531;28;20198;-86
2021/03/06 11:22:45;;;;;;;5.63;4.27;;;;;;;;;;5055405;28;20183;-86
2021/03/06 11:25:11;;;;;;;6.10;4.67;;;;;;;;;;5056186;28;20195;-86
2021/03/06 11:27:43;;;;;;;5.53;4.37;;;;;;;;;;5056333;28;20182;-86
2021/03/06 11:30:09;;;;;;;7.37;5.00;;;;;;;;;;5056253;28;20660;-87
2021/03/06 11:32:35;;;;;;;6.53;4.70;;;;;;;;;;5056164;28;20176;-87
2021/03/06 11:35:00;;;;;;;7.90;4.50;;;;;;;;;;5056218;28;20168;-87
2021/03/06 11:37:25;;;;;;;6.40;4.57;;;;;;;;;;5056362;28;20191;-87
2021/03/06 11:39:50;;;;;;;5.47;4.47;;;;;;;;;;5061621;28;20262;-87
2021/03/06 11:42:16;;;;;;;5.73;4.10;;;;;;;;;;5061446;28;20263;-87
2021/03/06 11:44:41;;;;;;;8.70;5.33;;;;;;;;;;5059887;28;20263;-87
2021/03/06 11:47:06;;;;;;;4.87;4.17;;;;;;;;;;5055998;28;20179;-87
2021/03/06 11:49:32;;;;;;;4.77;4.00;;;;;;;;;;5054383;28;20210;-86
2021/03/06 11:51:57;;;;;;;6.37;4.20;;;;;;;;;;5055366;28;20198;-87
2021/03/06 11:54:22;;;;;;;8.77;4.77;;;;;;;;;;5055923;28;20168;-87
2021/03/06 11:56:48;;;;;;;5.60;4.77;;;;;;;;;;5055864;28;20262;-87
2021/03/06 11:59:14;;;;;;;5.37;3.90;;;;;;;;;;5055807;28;20171;-87
2021/03/06 12:01:39;;;;;;;6.00;4.23;;;;;;;;;;5054343;28;20589;-87
2021/03/06 12:04:05;;;;;;;8.03;5.63;;;;;;;;;;5055816;28;20164;-87
2021/03/06 12:06:30;;;;;;;5.73;4.23;;;;;;;;;;5055759;28;20521;-87
2021/03/06 12:08:55;;;;;;;5.77;4.57;;;;;;;;;;5055893;28;20171;-87
2021/03/06 12:11:21;;;;;;;4.70;3.83;;;;;;;;;;5055341;28;20178;-87
2021/03/06 12:13:46;;;;;;;7.77;4.90;;;;;;;;;;5055485;28;20178;-87
2021/03/06 12:16:11;;;;;;;7.37;4.67;;;;;;;;;;5055423;28;20286;-87
2021/03/06 12:18:37;;;;;;;5.10;4.50;;;;;;;;;;5055212;28;20183;-87
2021/03/06 12:21:02;;;;;;;8.90;5.43;;;;;;;;;;5055445;28;20199;-87
2021/03/06 12:23:27;;;;;;;5.43;4.20;;;;;;;;;;5050518;28;20184;-87
2021/03/06 12:25:53;;;;;;;8.43;5.20;;;;;;;;;;5052993;28;20172;-87
2021/03/06 12:28:18;;;;;;;6.70;4.70;;;;;;;;;;5054801;28;20176;-87
2021/03/06 12:30:43;;;;;;;5.53;4.73;;;;;;;;;;5055090;28;20221;-87
2021/03/06 12:33:09;;;;;;;6.20;4.57;;;;;;;;;;5055807;28;20254;-87
2021/03/06 12:35:34;;;;;;;7.17;4.87;;;;;;;;;;5055054;28;20172;-87
2021/03/06 12:37:59;;;;;;;6.37;5.10;;;;;;;;;;5055142;28;20191;-87
2021/03/06 12:40:25;;;;;;;10.17;6.77;;;;;;;;;;5055278;28;20191;-88
2021/03/06 12:42:50;;;;;;;12.93;6.63;;;;;;;;;;5055144;28;20168;-87
2021/03/06 12:45:15;;;;;;;8.33;6.00;;;;;;;;;;5054911;28;20502;-87
2021/03/06 12:47:41;;;;;;;16.87;10.03;;;;;;;;;;5054890;28;20164;-87
2021/03/06 12:50:07;;;;;;;16.97;9.23;;;;;;;;;;5054954;28;20342;-87
2021/03/06 12:52:33;;;;;;;11.67;8.00;;;;;;;;;;5054754;28;20290;-87
2021/03/06 12:54:58;;;;;;;17.20;11.97;;;;;;;;;;5054974;28;20176;-87
2021/03/06 12:57:23;;;;;;;18.77;10.80;;;;;;;;;;5055058;28;20222;-88
2021/03/06 12:59:49;;;;;;;11.17;7.47;;;;;;;;;;5054667;28;20199;-87
2021/03/06 13:02:15;;;;;;;7.37;5.70;;;;;;;;;;5052022;28;20300;-87
2021/03/06 13:04:40;;;;;;;8.07;5.53;;;;;;;;;;5034365;28;20191;-87
2021/03/06 13:07:05;;;;;;;12.53;6.57;;;;;;;;;;5049170;28;20167;-87
2021/03/06 13:09:31;;;;;;;8.80;6.10;;;;;;;;;;5054581;28;20198;-87
2021/03/06 13:11:56;;;;;;;11.70;7.20;;;;;;;;;;5054542;28;20196;-87
2021/03/06 13:14:21;;;;;;;17.17;10.50;;;;;;;;;;5055180;28;20515;-87
2021/03/06 13:16:47;;;;;;;13.70;8.07;;;;;;;;;;5052896;28;20225;-86
2021/03/06 13:19:12;;;;;;;10.53;6.40;;;;;;;;;;5048582;28;20172;-86
2021/03/06 13:21:37;;;;;;;10.33;7.30;;;;;;;;;;5054238;28;20223;-87
2021/03/06 13:24:03;;;;;;;14.10;9.57;;;;;;;;;;5053305;28;20183;-87
2021/03/06 13:26:28;;;;;;;9.60;6.70;;;;;;;;;;5054287;28;20214;-87
2021/03/06 13:28:54;;;;;;;10.03;6.97;;;;;;;;;;5054017;28;20176;-87
2021/03/06 13:31:19;;;;;;;10.73;7.43;;;;;;;;;;5054231;28;20634;-87
2021/03/06 13:33:45;;;;;;;10.93;7.30;;;;;;;;;;5054145;28;20179;-87
2021/03/06 13:36:11;;;;;;;9.33;6.63;;;;;;;;;;5054217;28;20186;-86
2021/03/06 13:38:36;;;;;;;10.47;7.00;;;;;;;;;;5054168;28;20191;-87
2021/03/06 13:41:02;;;;;;;9.67;6.90;;;;;;;;;;5047768;28;20192;-87
2021/03/06 13:43:28;;;;;;;14.00;8.93;;;;;;;;;;5043063;28;20176;-87
2021/03/06 13:45:53;;;;;;;14.93;9.73;;;;;;;;;;5051059;28;20645;-87
2021/03/06 13:48:18;;;;;;;14.80;8.57;;;;;;;;;;5053390;28;20178;-86
2021/03/06 13:50:44;;;;;;;12.23;8.80;;;;;;;;;;5051798;28;20172;-86
2021/03/06 13:53:10;;;;;;;16.17;10.20;;;;;;;;;;5048235;28;20262;-86
2021/03/06 13:55:35;;;;;;;12.27;9.03;;;;;;;;;;5053756;28;20204;-87
2021/03/06 13:58:01;;;;;;;9.73;7.70;;;;;;;;;;5053553;28;20172;-87
2021/03/06 14:00:26;;;;;;;9.47;7.03;;;;;;;;;;5053326;28;20561;-88
2021/03/06 14:02:51;;;;;;;7.70;6.90;;;;;;;;;;5050540;28;20615;-86
2021/03/06 14:05:17;;;;;;;11.83;9.00;;;;;;;;;;5052985;28;20186;-87
2021/03/06 14:07:42;;;;;;;14.33;8.47;;;;;;;;;;5053584;28;20639;-89
2021/03/06 14:10:08;;;;;;;12.00;8.60;;;;;;;;;;5055070;28;20185;-88
2021/03/06 14:12:34;;;;;;;11.43;8.23;;;;;;;;;;5061157;28;20692;-88
2021/03/06 14:15:00;;;;;;;15.47;9.97;;;;;;;;;;5057802;28;20172;-88
2021/03/06 14:17:25;;;;;;;17.57;10.17;;;;;;;;;;5052746;28;20182;-89
2021/03/06 14:19:51;;;;;;;14.00;9.77;;;;;;;;;;5053788;28;20210;-90
2021/03/06 14:22:17;;;;;;;12.83;8.33;;;;;;;;;;5052225;28;20260;-89